Time;durP1;ratioP1;P1;durP2;ratioP2;P2;SDS_P1;SDS_P2;PMS_P1;PMS_P2;Temp;Humidity;BMP_temperature;BMP_pressure;BME280_temperature;BME280_humidity;BME280_pressure;Samples;Min_cycle;Max_cycle;Signal;HPM_P1;HPM_P2
2023/08/16 00:00:26;;;;;;;;;;;;;;;18.77;95.88;95290.47;5136897;27;949;-56
2023/08/16 00:02:52;;;;;;;;;;;;;;;18.99;94.94;95293.81;5135377;27;1080;-56
2023/08/16 00:05:18;;;;;;;;;;;;;;;19.22;93.97;95283.38;5136696;27;1031;-56
2023/08/16 00:07:45;;;;;;;;;;;;;;;19.26;93.78;95289.22;5136526;27;1024;-56
2023/08/16 00:10:11;;;;;;;;;;;;;;;19.33;93.43;95300.03;5136724;27;1008;-56
2023/08/16 00:12:38;;;;;;;;;;;;;;;19.44;92.89;95293.94;5136418;27;1090;-56
2023/08/16 00:15:04;;;;;;;;;;;;;;;19.31;93.21;95290.25;5136419;27;1059;-56
2023/08/16 00:17:30;;;;;;;;;;;;;;;19.20;92.45;95290.88;5136129;27;1898;-56
2023/08/16 00:19:56;;;;;;;;;;;;;;;18.95;93.56;95298.81;5129834;27;2594;-56
2023/08/16 00:22:22;;;;;;;;;;;;;;;18.85;94.46;95301.97;5115608;28;1111;-56
2023/08/16 00:24:48;;;;;;;;;;;;;;;18.90;94.53;95302.16;5120286;27;2884;-56
2023/08/16 00:27:14;;;;;;;;;;;;;;;18.98;94.38;95298.41;5136382;27;1053;-56
2023/08/16 00:29:40;;;;;;;;;;;;;;;19.02;94.00;95298.81;5136140;27;969;-56
2023/08/16 00:32:07;;;;;;;;;;;;;;;18.78;93.91;95298.41;5135998;27;1044;-57
2023/08/16 00:34:33;;;;;;;;;;;;;;;18.58;94.96;95292.97;5135896;27;1087;-56
2023/08/16 00:36:59;;;;;;;;;;;;;;;18.50;96.10;95293.19;5135984;27;1534;-56
2023/08/16 00:39:25;;;;;;;;;;;;;;;18.56;95.73;95284.22;5135923;27;1910;-56
2023/08/16 00:41:52;;;;;;;;;;;;;;;18.75;95.03;95287.97;5135962;27;1026;-56
2023/08/16 00:44:18;;;;;;;;;;;;;;;18.82;93.80;95286.13;5135865;27;1044;-56
2023/08/16 00:46:44;;;;;;;;;;;;;;;18.73;94.89;95285.47;5117254;27;2523;-56
2023/08/16 00:49:10;;;;;;;;;;;;;;;18.73;94.54;95288.19;5127843;27;2570;-55
2023/08/16 00:51:36;;;;;;;;;;;;;;;18.69;95.03;95283.41;5134600;27;2446;-56
2023/08/16 00:54:03;;;;;;;;;;;;;;;18.73;94.72;95282.75;5135804;27;1031;-56
2023/08/16 00:56:29;;;;;;;;;;;;;;;18.77;94.15;95280.47;5135452;27;1099;-57
2023/08/16 00:58:55;;;;;;;;;;;;;;;18.72;94.73;95281.13;5135369;27;1917;-56
2023/08/16 01:01:21;;;;;;;;;;;;;;;18.84;93.95;95280.53;5135346;27;1031;-56
2023/08/16 01:03:47;;;;;;;;;;;;;;;18.83;93.93;95278.84;5135360;27;1028;-56
2023/08/16 01:06:13;;;;;;;;;;;;;;;18.75;94.08;95282.56;5135261;27;1023;-56
2023/08/16 01:08:39;;;;;;;;;;;;;;;18.45;95.26;95274.84;5135598;27;969;-56
2023/08/16 01:11:07;;;;;;;;;;;;;;;18.41;95.96;95281.72;5135375;27;1068;-56
2023/08/16 01:13:36;;;;;;;;;;;;;;;18.47;95.34;95285.47;5135119;27;1098;-56
2023/08/16 01:16:07;;;;;;;;;;;;;;;18.46;95.31;95281.94;5135106;27;1022;-56
2023/08/16 01:18:35;;;;;;;;;;;;;;;18.51;94.70;95282.13;5134089;27;2866;-56
2023/08/16 01:21:01;;;;;;;;;;;;;;;18.60;94.19;95281.94;5134997;27;1606;-56
2023/08/16 01:23:34;;;;;;;;;;;;;;;18.61;94.23;95286.28;5134926;27;1214;-56
2023/08/16 01:26:10;;;;;;;;;;;;;;;18.53;94.53;95279.22;5135308;27;1039;-56
2023/08/16 01:28:36;;;;;;;;;;;;;;;18.53;94.07;95285.50;5134874;27;1114;-56
2023/08/16 01:31:03;;;;;;;;;;;;;;;18.49;94.11;95280.66;5135152;27;965;-56
2023/08/16 01:33:29;;;;;;;;;;;;;;;18.48;94.38;95277.13;5134736;27;1098;-56
2023/08/16 01:35:56;;;;;;;;;;;;;;;18.36;94.56;95281.50;5134833;27;1028;-56
2023/08/16 01:38:22;;;;;;;;;;;;;;;18.24;95.01;95278.56;5134902;27;1913;-56
2023/08/16 01:41:06;;;;;;;;;;;;;;;18.14;95.54;95270.03;5133580;27;2522;-56
2023/08/16 01:43:33;;;;;;;;;;;;;;;18.16;95.68;95277.94;5134509;27;1103;-56
2023/08/16 01:46:00;;;;;;;;;;;;;;;18.14;95.67;95275.44;5134687;27;1095;-56
2023/08/16 01:48:26;;;;;;;;;;;;;;;18.17;95.25;95275.00;5134754;27;961;-56
2023/08/16 01:50:52;;;;;;;;;;;;;;;18.19;95.20;95269.38;5134728;27;1011;-56
2023/08/16 01:53:19;;;;;;;;;;;;;;;18.20;95.25;95281.91;5134605;27;1024;-56
2023/08/16 01:55:45;;;;;;;;;;;;;;;18.38;94.00;95278.59;5134935;27;1035;-56
2023/08/16 01:58:11;;;;;;;;;;;;;;;18.52;93.19;95278.38;5132899;27;2479;-56
2023/08/16 02:00:37;;;;;;;;;;;;;;;18.48;92.72;95284.44;5134535;27;1083;-56
2023/08/16 02:03:03;;;;;;;;;;;;;;;18.32;94.05;95274.81;5134529;27;1102;-56
2023/08/16 02:05:29;;;;;;;;;;;;;;;18.21;94.63;95276.28;5131562;27;3035;-56
2023/08/16 02:07:55;;;;;;;;;;;;;;;18.10;95.52;95274.19;5133359;27;2927;-56
2023/08/16 02:10:21;;;;;;;;;;;;;;;18.13;95.37;95274.56;5134336;27;1136;-57
2023/08/16 02:12:47;;;;;;;;;;;;;;;18.29;94.32;95277.97;5134443;27;1036;-56
2023/08/16 02:15:13;;;;;;;;;;;;;;;18.11;95.48;95275.84;5133873;28;2329;-56
2023/08/16 02:17:39;;;;;;;;;;;;;;;17.89;96.94;95277.84;5133593;27;2870;-56
2023/08/16 02:20:05;;;;;;;;;;;;;;;17.95;97.26;95274.34;5134288;27;1584;-56
2023/08/16 02:22:31;;;;;;;;;;;;;;;18.21;96.58;95280.84;5134597;27;1045;-56
2023/08/16 02:24:57;;;;;;;;;;;;;;;18.34;95.95;95280.88;5134319;27;1013;-56
2023/08/16 02:27:23;;;;;;;;;;;;;;;18.43;95.86;95276.91;5131364;27;2538;-56
2023/08/16 02:29:51;;;;;;;;;;;;;;;18.47;96.10;95275.47;5113879;28;1011;-56
2023/08/16 02:32:18;;;;;;;;;;;;;;;18.57;95.74;95276.94;5113652;28;984;-56
2023/08/16 02:34:44;;;;;;;;;;;;;;;18.69;95.83;95275.28;5113959;28;977;-55
2023/08/16 02:37:09;;;;;;;;;;;;;;;18.83;96.05;95279.66;5113610;28;2000;-55
2023/08/16 02:39:35;;;;;;;;;;;;;;;18.76;95.50;95278.78;5113989;28;1024;-56
2023/08/16 02:42:02;;;;;;;;;;;;;;;18.84;95.12;95272.38;5113535;28;1088;-56
2023/08/16 02:44:28;;;;;;;;;;;;;;;18.91;95.23;95282.19;5113541;28;953;-57
2023/08/16 02:46:54;;;;;;;;;;;;;;;18.88;96.52;95277.16;5113839;28;1044;-56
2023/08/16 02:49:20;;;;;;;;;;;;;;;18.95;95.74;95281.75;5113558;28;1049;-56
2023/08/16 02:51:46;;;;;;;;;;;;;;;18.81;97.41;95276.34;5113813;28;1399;-55
2023/08/16 02:54:12;;;;;;;;;;;;;;;18.65;98.18;95280.28;5113341;28;992;-56
2023/08/16 02:56:37;;;;;;;;;;;;;;;18.71;97.63;95270.47;5113612;28;1092;-57
2023/08/16 02:59:03;;;;;;;;;;;;;;;18.67;98.77;95277.38;5113377;28;1910;-56
2023/08/16 03:01:29;;;;;;;;;;;;;;;18.73;98.32;95279.22;5113613;28;1074;-56
2023/08/16 03:03:55;;;;;;;;;;;;;;;18.89;98.03;95284.25;5113474;28;1070;-56
2023/08/16 03:06:21;;;;;;;;;;;;;;;18.96;98.28;95278.00;5113188;28;1979;-56
2023/08/16 03:08:47;;;;;;;;;;;;;;;19.02;97.92;95279.88;5113688;28;1083;-57
2023/08/16 03:11:13;;;;;;;;;;;;;;;19.07;97.59;95277.38;5113409;28;979;-57
2023/08/16 03:13:39;;;;;;;;;;;;;;;19.03;98.13;95278.84;5113263;28;1152;-57
2023/08/16 03:16:05;;;;;;;;;;;;;;;19.06;97.93;95284.63;5113188;28;1067;-57
2023/08/16 03:18:31;;;;;;;;;;;;;;;19.07;98.69;95277.38;5116463;28;1930;-56
2023/08/16 03:20:57;;;;;;;;;;;;;;;19.18;98.24;95286.69;5134030;27;1349;-57
2023/08/16 03:23:23;;;;;;;;;;;;;;;19.28;96.94;95285.22;5137345;27;992;-57
2023/08/16 03:25:49;;;;;;;;;;;;;;;19.36;96.85;95284.16;5137686;27;1032;-57
2023/08/16 03:28:15;;;;;;;;;;;;;;;19.31;97.55;95287.53;5129104;27;2482;-55
2023/08/16 03:30:41;;;;;;;;;;;;;;;19.19;98.43;95291.09;5116920;28;1057;-55
2023/08/16 03:33:07;;;;;;;;;;;;;;;19.26;97.32;95286.50;5116677;28;1039;-56
2023/08/16 03:35:33;;;;;;;;;;;;;;;19.27;97.23;95289.00;5116624;28;1983;-56
2023/08/16 03:37:59;;;;;;;;;;;;;;;19.19;98.47;95291.09;5116508;28;1906;-55
2023/08/16 03:40:25;;;;;;;;;;;;;;;19.19;98.80;95282.97;5116668;28;965;-55
2023/08/16 03:42:51;;;;;;;;;;;;;;;19.22;97.74;95282.56;5116770;28;1191;-56
2023/08/16 03:45:17;;;;;;;;;;;;;;;19.34;96.86;95283.56;5116597;28;1034;-57
2023/08/16 03:47:43;;;;;;;;;;;;;;;19.39;96.65;95282.91;5116566;28;1067;-57
2023/08/16 03:50:09;;;;;;;;;;;;;;;19.33;98.01;95283.75;5116267;27;984;-56
2023/08/16 03:52:35;;;;;;;;;;;;;;;19.33;98.72;95281.91;5116529;28;1247;-57
2023/08/16 03:55:01;;;;;;;;;;;;;;;19.17;100.00;95285.06;5116507;28;976;-55
2023/08/16 03:57:27;;;;;;;;;;;;;;;19.13;100.00;95281.94;5115845;28;1918;-56
2023/08/16 03:59:53;;;;;;;;;;;;;;;19.23;98.86;95279.59;5116478;28;1154;-56
2023/08/16 04:02:20;;;;;;;;;;;;;;;19.39;98.34;95288.31;5116198;28;947;-57
2023/08/16 04:04:50;;;;;;;;;;;;;;;19.50;97.26;95283.09;5116062;28;1126;-57
2023/08/16 04:07:16;;;;;;;;;;;;;;;19.54;98.48;95280.78;5116289;28;977;-57
2023/08/16 04:09:42;;;;;;;;;;;;;;;19.34;100.00;95285.44;5116223;28;947;-58
2023/08/16 04:12:08;;;;;;;;;;;;;;;19.25;100.00;95282.94;5116018;28;1044;-58
2023/08/16 04:14:34;;;;;;;;;;;;;;;19.41;98.89;95278.13;5115819;28;1031;-57
2023/08/16 04:17:00;;;;;;;;;;;;;;;19.64;98.21;95283.03;5115780;28;2899;-57
2023/08/16 04:19:26;;;;;;;;;;;;;;;19.80;97.28;95284.47;5122310;27;2697;-57
2023/08/16 04:21:52;;;;;;;;;;;;;;;19.98;95.10;95276.47;5136334;27;999;-57
2023/08/16 04:24:18;;;;;;;;;;;;;;;20.14;94.10;95277.81;5136452;27;965;-57
2023/08/16 04:26:44;;;;;;;;;;;;;;;20.17;95.07;95276.56;5136553;27;1006;-57
2023/08/16 04:29:10;;;;;;;;;;;;;;;20.13;95.09;95281.59;5135777;27;1028;-57
2023/08/16 04:31:36;;;;;;;;;;;;;;;19.99;96.93;95288.97;5136243;27;1052;-56
2023/08/16 04:34:02;;;;;;;;;;;;;;;20.08;96.84;95289.56;5136426;27;999;-56
2023/08/16 04:36:28;;;;;;;;;;;;;;;19.97;96.60;95290.22;5135932;27;1110;-55
2023/08/16 04:38:54;;;;;;;;;;;;;;;19.98;96.73;95295.44;5136006;27;1995;-56
2023/08/16 04:41:20;;;;;;;;;;;;;;;20.05;96.53;95298.13;5136163;27;991;-55
2023/08/16 04:43:46;;;;;;;;;;;;;;;20.02;96.83;95298.56;5136240;27;1091;-56
2023/08/16 04:46:12;;;;;;;;;;;;;;;20.09;96.92;95289.34;5135976;27;960;-56
2023/08/16 04:48:38;;;;;;;;;;;;;;;19.90;99.97;95301.13;5135944;27;979;-56
2023/08/16 04:51:04;;;;;;;;;;;;;;;19.70;100.00;95301.16;5136068;27;961;-56
2023/08/16 04:53:29;;;;;;;;;;;;;;;19.57;100.00;95302.03;5135898;27;973;-55
2023/08/16 04:55:55;;;;;;;;;;;;;;;19.60;100.00;95301.63;5136046;27;1036;-56
2023/08/16 04:58:21;;;;;;;;;;;;;;;19.66;100.00;95306.19;5135322;27;1917;-55
2023/08/16 05:00:47;;;;;;;;;;;;;;;19.66;100.00;95298.06;5135941;27;963;-56
2023/08/16 05:03:13;;;;;;;;;;;;;;;19.71;100.00;95300.13;5135810;27;957;-55
2023/08/16 05:05:39;;;;;;;;;;;;;;;19.80;100.00;95300.75;5135583;27;1007;-58
2023/08/16 05:08:05;;;;;;;;;;;;;;;19.95;98.44;95303.19;5135449;27;1040;-56
2023/08/16 05:10:31;;;;;;;;;;;;;;;20.22;97.23;95302.00;5135337;27;1110;-57
2023/08/16 05:12:57;;;;;;;;;;;;;;;20.47;95.62;95302.06;5135567;27;975;-57
2023/08/16 05:15:23;;;;;;;;;;;;;;;20.63;93.93;95295.28;5135612;27;965;-57
2023/08/16 05:17:49;;;;;;;;;;;;;;;20.80;92.47;95295.56;5129194;27;2866;-57
2023/08/16 05:20:15;;;;;;;;;;;;;;;20.81;93.74;95297.25;5125790;27;1343;-57
2023/08/16 05:22:41;;;;;;;;;;;;;;;20.84;93.52;95294.06;5135448;27;1066;-57
2023/08/16 05:25:07;;;;;;;;;;;;;;;21.01;93.14;95296.25;5135139;27;1126;-57
2023/08/16 05:27:33;;;;;;;;;;;;;;;21.13;93.40;95289.00;5135336;27;1031;-56
2023/08/16 05:29:59;;;;;;;;;;;;;;;21.27;91.22;95295.16;5135329;27;1036;-56
2023/08/16 05:32:25;;;;;;;;;;;;;;;21.42;91.49;95294.81;5134962;27;1090;-57
2023/08/16 05:34:53;;;;;;;;;;;;;;;21.55;89.93;95289.25;5133781;27;1118;-57
2023/08/16 05:37:19;;;;;;;;;;;;;;;21.76;87.41;95281.66;5134751;27;1910;-56
2023/08/16 05:39:46;;;;;;;;;;;;;;;21.76;89.34;95284.38;5134253;27;1071;-56
2023/08/16 05:42:12;;;;;;;;;;;;;;;21.72;87.85;95292.19;5134756;27;1028;-56
2023/08/16 05:44:38;;;;;;;;;;;;;;;21.72;89.56;95288.63;5133717;27;2968;-57
2023/08/16 05:47:05;;;;;;;;;;;;;;;22.17;87.52;95282.81;5135068;27;1106;-56
2023/08/16 05:49:31;;;;;;;;;;;;;;;22.57;84.29;95280.38;5134669;27;1087;-57
2023/08/16 05:51:56;;;;;;;;;;;;;;;22.81;81.73;95278.53;5134629;27;1087;-56
2023/08/16 05:54:22;;;;;;;;;;;;;;;22.92;81.24;95278.81;5134565;27;988;-56
2023/08/16 05:56:49;;;;;;;;;;;;;;;23.12;79.96;95287.47;5134742;27;1238;-57
2023/08/16 05:59:15;;;;;;;;;;;;;;;23.22;80.16;95289.66;5134624;27;1978;-56
2023/08/16 06:01:42;;;;;;;;;;;;;;;23.45;80.91;95283.34;5134558;27;1155;-56
2023/08/16 06:04:08;;;;;;;;;;;;;;;23.68;80.18;95281.66;5134532;27;1036;-56
2023/08/16 06:06:34;;;;;;;;;;;;;;;23.83;78.09;95289.34;5134625;27;1169;-55
2023/08/16 06:09:00;;;;;;;;;;;;;;;23.81;79.54;95291.50;5134501;27;1078;-55
2023/08/16 06:11:26;;;;;;;;;;;;;;;23.55;80.35;95289.03;5127335;27;3064;-56
2023/08/16 06:13:52;;;;;;;;;;;;;;;23.39;81.24;95284.28;5113907;28;1780;-55
2023/08/16 06:16:18;;;;;;;;;;;;;;;23.38;81.22;95282.63;5113915;28;967;-55
2023/08/16 06:18:45;;;;;;;;;;;;;;;23.33;84.46;95290.69;5113774;28;1905;-56
2023/08/16 06:21:11;;;;;;;;;;;;;;;22.98;85.37;95286.84;5132654;28;1407;-56
2023/08/16 06:23:39;;;;;;;;;;;;;;;22.83;86.98;95289.22;5134724;27;967;-56
2023/08/16 06:26:05;;;;;;;;;;;;;;;22.60;87.74;95282.66;5134311;27;1028;-56
2023/08/16 06:28:31;;;;;;;;;;;;;;;22.71;87.87;95289.19;5133222;28;969;-57
2023/08/16 06:30:57;;;;;;;;;;;;;;;22.71;89.06;95291.91;5134282;27;1032;-55
2023/08/16 06:33:23;;;;;;;;;;;;;;;22.50;89.95;95296.00;5132957;28;1154;-56
2023/08/16 06:35:51;;;;;;;;;;;;;;;22.64;88.57;95291.19;5134449;27;1011;-56
2023/08/16 06:38:18;;;;;;;;;;;;;;;22.76;87.77;95292.03;5134020;27;1994;-55
2023/08/16 06:40:44;;;;;;;;;;;;;;;23.03;86.78;95291.66;5134140;27;1071;-55
2023/08/16 06:43:10;;;;;;;;;;;;;;;23.06;86.41;95288.44;5134112;27;1031;-55
2023/08/16 06:45:36;;;;;;;;;;;;;;;23.18;85.16;95293.88;5134267;27;965;-56
2023/08/16 06:48:03;;;;;;;;;;;;;;;23.30;83.76;95291.19;5134469;27;984;-55
2023/08/16 06:50:29;;;;;;;;;;;;;;;23.31;83.54;95292.81;5134148;27;1059;-55
2023/08/16 06:52:55;;;;;;;;;;;;;;;23.30;83.91;95297.47;5133002;27;3116;-55
2023/08/16 06:55:22;;;;;;;;;;;;;;;23.39;85.54;95292.47;5117611;28;1143;-55
2023/08/16 06:57:48;;;;;;;;;;;;;;;23.62;82.91;95285.31;5117340;28;1910;-56
2023/08/16 07:00:17;;;;;;;;;;;;;;;23.82;82.12;95285.78;5117593;28;1007;-55
2023/08/16 07:02:43;;;;;;;;;;;;;;;23.89;83.76;95289.22;5117371;28;1040;-55
2023/08/16 07:05:11;;;;;;;;;;;;;;;23.84;83.11;95291.03;5117231;28;1048;-55
2023/08/16 07:07:37;;;;;;;;;;;;;;;23.97;80.57;95283.38;5117309;28;1090;-56
2023/08/16 07:10:04;;;;;;;;;;;;;;;24.29;78.58;95282.91;5117207;28;1063;-56
2023/08/16 07:12:30;;;;;;;;;;;;;;;24.49;77.45;95282.47;5116096;28;1040;-56
2023/08/16 07:14:56;;;;;;;;;;;;;;;24.57;78.69;95283.16;5116061;28;1039;-57
2023/08/16 07:17:22;;;;;;;;;;;;;;;24.69;77.08;95276.56;5117186;28;1988;-56
2023/08/16 07:19:50;;;;;;;;;;;;;;;24.71;76.63;95279.06;5124626;27;1441;-57
2023/08/16 07:22:15;;;;;;;;;;;;;;;24.78;77.68;95267.97;5137655;27;941;-56
2023/08/16 07:24:41;;;;;;;;;;;;;;;24.87;76.75;95271.94;5136468;27;2432;-56
2023/08/16 07:27:07;;;;;;;;;;;;;;;24.96;74.23;95281.38;5137535;27;1037;-57
2023/08/16 07:29:33;;;;;;;;;;;;;;;24.93;74.94;95276.44;5137366;27;983;-57
2023/08/16 07:32:00;;;;;;;;;;;;;;;25.09;74.22;95275.59;5137378;27;821;-57
2023/08/16 07:34:26;;;;;;;;;;;;;;;25.67;72.99;95272.63;5137166;27;1006;-57
2023/08/16 07:36:52;;;;;;;;;;;;;;;25.74;70.23;95269.69;5137578;27;1052;-56
2023/08/16 07:39:18;;;;;;;;;;;;;;;25.89;71.92;95267.97;5137295;27;2004;-56
2023/08/16 07:41:44;;;;;;;;;;;;;;;25.77;71.48;95264.56;5136704;27;3018;-56
2023/08/16 07:44:10;;;;;;;;;;;;;;;25.79;71.92;95270.59;5136491;27;2803;-56
2023/08/16 07:46:36;;;;;;;;;;;;;;;25.77;72.07;95271.94;5137179;27;987;-56
2023/08/16 07:49:02;;;;;;;;;;;;;;;25.79;72.92;95267.84;5136954;27;1060;-56
2023/08/16 07:51:28;;;;;;;;;;;;;;;25.69;73.79;95263.09;5136864;27;1029;-56
2023/08/16 07:53:54;;;;;;;;;;;;;;;25.63;71.74;95271.47;5137089;27;953;-56
2023/08/16 07:56:20;;;;;;;;;;;;;;;25.75;73.01;95266.72;5136942;27;1027;-56
2023/08/16 07:58:46;;;;;;;;;;;;;;;26.16;72.04;95272.75;5136624;27;1905;-56
2023/08/16 08:01:12;;;;;;;;;;;;;;;26.61;69.37;95276.25;5136718;27;968;-55
2023/08/16 08:03:38;;;;;;;;;;;;;;;26.76;69.75;95272.84;5135988;27;952;-55
2023/08/16 08:06:04;;;;;;;;;;;;;;;27.01;68.44;95270.28;5136956;27;1026;-55
2023/08/16 08:08:31;;;;;;;;;;;;;;;27.26;65.79;95271.59;5136528;27;1095;-56
2023/08/16 08:10:57;;;;;;;;;;;;;;;27.43;63.18;95269.56;5136723;27;957;-56
2023/08/16 08:13:23;;;;;;;;;;;;;;;27.45;63.64;95270.13;5136751;27;979;-56
2023/08/16 08:15:49;;;;;;;;;;;;;;;27.61;63.18;95261.97;5136408;27;1025;-56
2023/08/16 08:18:15;;;;;;;;;;;;;;;27.64;63.31;95255.94;5136175;27;1996;-56
2023/08/16 08:20:41;;;;;;;;;;;;;;;27.74;64.30;95268.91;5136514;27;1598;-55
2023/08/16 08:23:07;;;;;;;;;;;;;;;27.78;62.83;95256.28;5135072;27;2560;-56
2023/08/16 08:25:34;;;;;;;;;;;;;;;27.81;62.18;95258.50;5136188;27;1056;-55
2023/08/16 08:28:00;;;;;;;;;;;;;;;27.83;61.33;95250.81;5136241;27;1036;-56
2023/08/16 08:30:26;;;;;;;;;;;;;;;28.01;63.24;95258.63;5136140;27;1020;-56
2023/08/16 08:32:55;;;;;;;;;;;;;;;28.14;63.14;95251.81;5136340;27;999;-56
2023/08/16 08:35:20;;;;;;;;;;;;;;;28.13;63.08;95249.31;5136147;27;1100;-56
2023/08/16 08:37:46;;;;;;;;;;;;;;;28.09;63.08;95256.44;5136287;27;1913;-56
2023/08/16 08:40:13;;;;;;;;;;;;;;;28.20;62.48;95249.91;5136193;27;1022;-56
2023/08/16 08:42:39;;;;;;;;;;;;;;;28.39;63.91;95248.28;5136176;27;1047;-56
2023/08/16 08:45:06;;;;;;;;;;;;;;;28.53;61.82;95248.66;5135906;27;1481;-56
2023/08/16 08:47:32;;;;;;;;;;;;;;;28.55;61.00;95240.09;5135765;27;1035;-56
2023/08/16 08:49:59;;;;;;;;;;;;;;;28.61;64.05;95239.03;5135758;27;1039;-55
2023/08/16 08:52:26;;;;;;;;;;;;;;;28.61;62.72;95239.84;5135641;27;1048;-56
2023/08/16 08:54:52;;;;;;;;;;;;;;;28.58;60.26;95243.13;5135610;27;1043;-56
2023/08/16 08:57:19;;;;;;;;;;;;;;;28.73;60.84;95236.84;5135222;27;1079;-56
2023/08/16 08:59:49;;;;;;;;;;;;;;;28.87;60.56;95236.28;5135384;27;1919;-56
2023/08/16 09:02:17;;;;;;;;;;;;;;;28.80;59.92;95229.13;5135479;27;1027;-56
2023/08/16 09:04:44;;;;;;;;;;;;;;;28.95;61.06;95225.56;5135465;27;1130;-56
2023/08/16 09:07:11;;;;;;;;;;;;;;;28.98;58.14;95229.69;5135416;27;1619;-56
2023/08/16 09:09:38;;;;;;;;;;;;;;;28.95;60.45;95235.72;5135667;27;1038;-56
2023/08/16 09:12:04;;;;;;;;;;;;;;;28.85;60.52;95231.06;5135350;27;1043;-56
2023/08/16 09:14:30;;;;;;;;;;;;;;;28.93;58.15;95230.53;5134380;27;961;-56
2023/08/16 09:16:56;;;;;;;;;;;;;;;29.06;57.65;95228.31;5134079;27;964;-56
2023/08/16 09:19:22;;;;;;;;;;;;;;;29.05;60.30;95224.72;5135273;27;1910;-55
2023/08/16 09:21:50;;;;;;;;;;;;;;;29.04;57.17;95223.06;5135460;27;972;-56
2023/08/16 09:24:21;;;;;;;;;;;;;;;28.97;58.40;95228.88;5135082;27;1098;-56
2023/08/16 09:26:47;;;;;;;;;;;;;;;29.00;59.39;95220.03;5135118;27;1865;-56
2023/08/16 09:29:13;;;;;;;;;;;;;;;29.17;57.91;95214.28;5135212;27;1024;-56
2023/08/16 09:31:41;;;;;;;;;;;;;;;29.19;58.85;95208.50;5135272;27;1028;-56
2023/08/16 09:34:07;;;;;;;;;;;;;;;29.20;57.64;95224.75;5135190;27;1031;-56
2023/08/16 09:36:35;;;;;;;;;;;;;;;29.16;57.04;95212.66;5134739;27;1095;-57
2023/08/16 09:39:03;;;;;;;;;;;;;;;29.07;58.72;95218.97;5133716;27;2915;-56
2023/08/16 09:41:30;;;;;;;;;;;;;;;29.10;56.45;95219.22;5134760;27;1008;-56
2023/08/16 09:44:05;;;;;;;;;;;;;;;29.13;57.56;95209.63;5134831;27;969;-56
2023/08/16 09:46:35;;;;;;;;;;;;;;;29.22;58.35;95216.22;5134888;27;1033;-56
2023/08/16 09:49:08;;;;;;;;;;;;;;;29.28;58.26;95204.09;5132624;27;2763;-56
2023/08/16 09:51:35;;;;;;;;;;;;;;;29.36;54.99;95210.94;5134662;27;1653;-56
2023/08/16 09:54:02;;;;;;;;;;;;;;;29.33;56.41;95217.00;5134488;27;1314;-56
2023/08/16 09:56:31;;;;;;;;;;;;;;;29.33;56.02;95212.34;5134281;27;1178;-58
2023/08/16 09:58:58;;;;;;;;;;;;;;;29.37;56.27;95212.63;5134852;27;1909;-55
2023/08/16 10:01:24;;;;;;;;;;;;;;;29.47;55.45;95206.25;5134663;27;972;-56
2023/08/16 10:03:52;;;;;;;;;;;;;;;29.47;56.26;95206.25;5134620;27;955;-56
2023/08/16 10:06:19;;;;;;;;;;;;;;;29.49;56.80;95212.31;5134445;27;960;-56
2023/08/16 10:08:45;;;;;;;;;;;;;;;29.51;55.80;95205.41;5134506;27;1043;-57
2023/08/16 10:11:11;;;;;;;;;;;;;;;29.61;56.31;95206.50;5134275;27;1082;-56
2023/08/16 10:13:38;;;;;;;;;;;;;;;29.52;55.61;95198.81;5134733;27;1156;-56
2023/08/16 10:16:04;;;;;;;;;;;;;;;29.50;53.94;95202.94;5134334;27;1036;-55
2023/08/16 10:18:30;;;;;;;;;;;;;;;29.64;54.94;95208.69;5134429;27;1909;-56
2023/08/16 10:20:59;;;;;;;;;;;;;;;29.57;56.39;95204.28;5134165;27;1539;-56
2023/08/16 10:23:26;;;;;;;;;;;;;;;29.58;55.58;95196.88;5134238;27;1020;-57
2023/08/16 10:25:55;;;;;;;;;;;;;;;29.77;55.23;95197.09;5135139;27;1027;-57
2023/08/16 10:28:22;;;;;;;;;;;;;;;29.85;54.37;95201.22;5138846;27;1063;-56
2023/08/16 10:30:51;;;;;;;;;;;;;;;29.94;55.41;95205.03;5138692;27;995;-57
2023/08/16 10:33:23;;;;;;;;;;;;;;;29.83;55.66;95192.41;5138127;27;2246;-56
2023/08/16 10:35:50;;;;;;;;;;;;;;;29.77;56.71;95197.09;5137922;27;3030;-57
2023/08/16 10:38:18;;;;;;;;;;;;;;;29.81;52.79;95203.69;5138257;27;1910;-56
2023/08/16 10:40:55;;;;;;;;;;;;;;;29.81;52.94;95200.13;5137373;27;2398;-56
2023/08/16 10:43:29;;;;;;;;;;;;;;;29.76;50.14;95190.75;5138566;27;1040;-56
2023/08/16 10:45:56;;;;;;;;;;;;;;;29.84;53.45;95183.00;5137401;27;962;-57
2023/08/16 10:48:22;;;;;;;;;;;;;;;30.07;54.71;95173.25;5138177;27;929;-56
2023/08/16 10:50:57;;;;;;;;;;;;;;;30.13;53.00;95185.91;5138136;27;1087;-56
2023/08/16 10:53:25;;;;;;;;;;;;;;;30.03;52.52;95181.28;5138303;27;973;-57
2023/08/16 10:55:55;;;;;;;;;;;;;;;30.05;50.80;95170.78;5138357;27;953;-56
2023/08/16 10:58:23;;;;;;;;;;;;;;;30.19;50.75;95168.22;5137742;27;1982;-56
2023/08/16 11:00:59;;;;;;;;;;;;;;;30.21;51.25;95168.75;5136643;27;2509;-56
2023/08/16 11:03:35;;;;;;;;;;;;;;;30.15;52.30;95167.16;5138110;27;1044;-57
2023/08/16 11:06:07;;;;;;;;;;;;;;;30.21;50.99;95159.69;5137846;27;1040;-56
2023/08/16 11:08:33;;;;;;;;;;;;;;;30.20;51.71;95158.00;5137973;27;996;-57
2023/08/16 11:11:01;;;;;;;;;;;;;;;30.15;52.01;95156.94;5138082;27;1056;-57
2023/08/16 11:13:28;;;;;;;;;;;;;;;30.27;51.99;95158.53;5137747;27;1032;-56
2023/08/16 11:15:55;;;;;;;;;;;;;;;30.29;51.01;95164.56;5136188;27;2856;-56
2023/08/16 11:18:31;;;;;;;;;;;;;;;30.17;50.60;95154.72;5137667;27;1913;-57
2023/08/16 11:21:00;;;;;;;;;;;;;;;30.22;52.18;95147.53;5137513;27;1571;-57
2023/08/16 11:23:37;;;;;;;;;;;;;;;30.33;52.00;95146.38;5136487;27;2474;-56
2023/08/16 11:26:04;;;;;;;;;;;;;;;30.37;50.70;95150.19;5137770;27;995;-56
2023/08/16 11:28:31;;;;;;;;;;;;;;;30.35;49.92;95145.00;5137359;27;1103;-57
2023/08/16 11:30:57;;;;;;;;;;;;;;;30.34;50.74;95148.03;5137553;27;969;-57
2023/08/16 11:33:24;;;;;;;;;;;;;;;30.20;48.77;95144.22;5137188;27;1047;-57
2023/08/16 11:35:52;;;;;;;;;;;;;;;30.04;48.42;95138.81;5136951;27;964;-56
2023/08/16 11:38:18;;;;;;;;;;;;;;;30.15;49.03;95137.66;5135896;27;1988;-56
2023/08/16 11:40:47;;;;;;;;;;;;;;;30.28;49.12;95144.47;5126805;27;2991;-55
2023/08/16 11:43:14;;;;;;;;;;;;;;;30.25;50.01;95133.16;5116874;27;2416;-56
2023/08/16 11:45:40;;;;;;;;;;;;;;;30.40;52.04;95135.84;5115453;28;1083;-57
2023/08/16 11:48:06;;;;;;;;;;;;;;;30.25;48.85;95138.69;5116122;28;1012;-56
2023/08/16 11:50:32;;;;;;;;;;;;;;;29.81;49.30;95137.56;5116219;28;1039;-57
2023/08/16 11:53:03;;;;;;;;;;;;;;;29.42;50.28;95140.16;5116098;28;1003;-57
2023/08/16 11:55:29;;;;;;;;;;;;;;;29.59;51.42;95138.75;5118724;27;2576;-57
2023/08/16 11:58:03;;;;;;;;;;;;;;;29.82;50.12;95130.13;5116011;28;1917;-57
2023/08/16 12:00:29;;;;;;;;;;;;;;;30.08;49.56;95139.06;5116117;28;1051;-57
2023/08/16 12:02:55;;;;;;;;;;;;;;;30.11;49.16;95131.06;5116614;28;960;-57
2023/08/16 12:05:23;;;;;;;;;;;;;;;30.04;47.60;95133.28;5116096;28;956;-56
2023/08/16 12:07:52;;;;;;;;;;;;;;;30.09;45.04;95127.75;5116298;28;1064;-57
2023/08/16 12:10:26;;;;;;;;;;;;;;;30.14;47.48;95124.94;5115810;28;1145;-56
2023/08/16 12:12:56;;;;;;;;;;;;;;;30.32;45.37;95122.69;5116267;28;969;-56
2023/08/16 12:15:23;;;;;;;;;;;;;;;30.45;47.66;95118.44;5116101;28;993;-56
2023/08/16 12:17:49;;;;;;;;;;;;;;;30.41;44.40;95125.63;5115710;28;2505;-57
2023/08/16 12:20:15;;;;;;;;;;;;;;;30.42;43.96;95117.06;5124129;27;2793;-57
2023/08/16 12:22:41;;;;;;;;;;;;;;;30.48;43.89;95117.88;5116144;28;965;-57
2023/08/16 12:25:07;;;;;;;;;;;;;;;30.41;45.55;95112.69;5115657;28;1104;-57
2023/08/16 12:27:33;;;;;;;;;;;;;;;30.42;46.07;95108.00;5115879;28;973;-56
2023/08/16 12:29:59;;;;;;;;;;;;;;;30.43;45.60;95107.72;5118661;27;2528;-57
2023/08/16 12:32:25;;;;;;;;;;;;;;;30.51;45.01;95103.50;5115739;28;1067;-56
2023/08/16 12:34:51;;;;;;;;;;;;;;;30.35;44.40;95108.31;5114370;28;1047;-57
2023/08/16 12:37:17;;;;;;;;;;;;;;;30.28;45.92;95102.25;5115686;28;965;-56
2023/08/16 12:39:43;;;;;;;;;;;;;;;29.97;43.37;95119.00;5115336;28;1984;-56
2023/08/16 12:42:09;;;;;;;;;;;;;;;29.99;44.84;95103.00;5117612;27;2424;-56
2023/08/16 12:44:35;;;;;;;;;;;;;;;30.04;45.33;95102.16;5116651;27;2516;-56
2023/08/16 12:47:01;;;;;;;;;;;;;;;30.24;45.09;95098.41;5115555;28;1133;-57
2023/08/16 12:49:27;;;;;;;;;;;;;;;30.40;45.09;95102.75;5114956;28;1040;-57
2023/08/16 12:51:53;;;;;;;;;;;;;;;30.43;44.83;95096.66;5115166;28;1063;-57
2023/08/16 12:54:19;;;;;;;;;;;;;;;30.57;46.15;95094.06;5115233;28;989;-56